sensor_id;sensor_type;location;lat;lon;timestamp;temperature;humidity
55331;DHT22;58851;42.984;20.336;2024-03-02T00:02:13;230.40;6502.40
55331;DHT22;58851;42.984;20.336;2024-03-02T00:04:39;230.40;6502.40
55331;DHT22;58851;42.984;20.336;2024-03-02T00:07:06;205.70;6502.40
55331;DHT22;58851;42.984;20.336;2024-03-02T00:09:33;205.70;6502.40
55331;DHT22;58851;42.984;20.336;2024-03-02T00:12:02;205.70;6502.40
55331;DHT22;58851;42.984;20.336;2024-03-02T00:14:29;205.60;6502.40
55331;DHT22;58851;42.984;20.336;2024-03-02T00:16:56;205.50;6502.40
55331;DHT22;58851;42.984;20.336;2024-03-02T00:19:22;205.50;6502.40
55331;DHT22;58851;42.984;20.336;2024-03-02T00:21:48;205.60;6502.40
55331;DHT22;58851;42.984;20.336;2024-03-02T00:24:34;205.50;6502.40
55331;DHT22;58851;42.984;20.336;2024-03-02T00:27:00;205.50;6502.40
55331;DHT22;58851;42.984;20.336;2024-03-02T00:29:27;205.60;6502.40
55331;DHT22;58851;42.984;20.336;2024-03-02T00:31:55;205.50;6502.40
55331;DHT22;58851;42.984;20.336;2024-03-02T00:34:21;205.60;6502.40
55331;DHT22;58851;42.984;20.336;2024-03-02T00:36:47;205.60;6502.40
55331;DHT22;58851;42.984;20.336;2024-03-02T00:39:15;205.50;6502.40
55331;DHT22;58851;42.984;20.336;2024-03-02T00:41:42;205.50;6502.40
55331;DHT22;58851;42.984;20.336;2024-03-02T00:44:12;205.50;6502.40
55331;DHT22;58851;42.984;20.336;2024-03-02T00:46:40;205.50;6502.40
55331;DHT22;58851;42.984;20.336;2024-03-02T00:49:21;205.40;6502.40
55331;DHT22;58851;42.984;20.336;2024-03-02T00:51:48;205.40;6502.40
55331;DHT22;58851;42.984;20.336;2024-03-02T00:54:14;205.40;6502.40
55331;DHT22;58851;42.984;20.336;2024-03-02T00:56:41;205.40;6502.40
55331;DHT22;58851;42.984;20.336;2024-03-02T00:59:07;205.30;6502.40
55331;DHT22;58851;42.984;20.336;2024-03-02T01:01:34;205.30;6502.40
55331;DHT22;58851;42.984;20.336;2024-03-02T01:04:00;205.30;6502.40
55331;DHT22;58851;42.984;20.336;2024-03-02T01:06:26;205.20;6502.40
55331;DHT22;58851;42.984;20.336;2024-03-02T01:08:51;205.20;128.00
55331;DHT22;58851;42.984;20.336;2024-03-02T01:11:18;205.30;6502.40
55331;DHT22;58851;42.984;20.336;2024-03-02T01:13:44;205.30;6528.00
55331;DHT22;58851;42.984;20.336;2024-03-02T01:16:10;205.20;128.00
55331;DHT22;58851;42.984;20.336;2024-03-02T01:18:36;205.20;204.80
55331;DHT22;58851;42.984;20.336;2024-03-02T01:21:02;205.30;307.20
55331;DHT22;58851;42.984;20.336;2024-03-02T01:23:28;205.30;128.00
55331;DHT22;58851;42.984;20.336;2024-03-02T01:25:54;205.30;204.80
55331;DHT22;58851;42.984;20.336;2024-03-02T01:28:20;205.10;435.20
55331;DHT22;58851;42.984;20.336;2024-03-02T01:30:47;205.00;486.40
55331;DHT22;58851;42.984;20.336;2024-03-02T01:33:13;205.00;6502.40
55331;DHT22;58851;42.984;20.336;2024-03-02T01:35:39;204.90;512.00
55331;DHT22;58851;42.984;20.336;2024-03-02T01:38:05;205.00;512.00
55331;DHT22;58851;42.984;20.336;2024-03-02T01:40:37;205.10;281.60
55331;DHT22;58851;42.984;20.336;2024-03-02T01:43:04;205.10;6502.40
55331;DHT22;58851;42.984;20.336;2024-03-02T01:45:30;205.10;6502.40
55331;DHT22;58851;42.984;20.336;2024-03-02T01:47:56;205.10;6502.40
55331;DHT22;58851;42.984;20.336;2024-03-02T01:50:32;205.20;6502.40
55331;DHT22;58851;42.984;20.336;2024-03-02T01:52:59;205.20;6502.40
55331;DHT22;58851;42.984;20.336;2024-03-02T01:55:25;205.20;6502.40
55331;DHT22;58851;42.984;20.336;2024-03-02T01:57:52;205.20;563.20
55331;DHT22;58851;42.984;20.336;2024-03-02T02:00:19;205.20;6502.40
55331;DHT22;58851;42.984;20.336;2024-03-02T02:02:45;205.20;512.00
55331;DHT22;58851;42.984;20.336;2024-03-02T02:05:12;205.30;486.40
55331;DHT22;58851;42.984;20.336;2024-03-02T02:07:38;205.30;435.20
55331;DHT22;58851;42.984;20.336;2024-03-02T02:10:04;205.20;332.80
55331;DHT22;58851;42.984;20.336;2024-03-02T02:12:30;205.20;281.60
55331;DHT22;58851;42.984;20.336;2024-03-02T02:14:56;205.20;332.80
55331;DHT22;58851;42.984;20.336;2024-03-02T02:17:22;205.20;230.40
55331;DHT22;58851;42.984;20.336;2024-03-02T02:19:48;205.20;230.40
55331;DHT22;58851;42.984;20.336;2024-03-02T02:22:13;205.30;332.80
55331;DHT22;58851;42.984;20.336;2024-03-02T02:24:40;205.20;384.00
55331;DHT22;58851;42.984;20.336;2024-03-02T02:27:10;205.20;6502.40
55331;DHT22;58851;42.984;20.336;2024-03-02T02:29:36;205.20;281.60
55331;DHT22;58851;42.984;20.336;2024-03-02T02:32:02;205.20;6502.40
55331;DHT22;58851;42.984;20.336;2024-03-02T02:34:28;205.20;512.00
55331;DHT22;58851;42.984;20.336;2024-03-02T02:36:54;205.10;6502.40
55331;DHT22;58851;42.984;20.336;2024-03-02T02:39:21;205.10;6502.40
55331;DHT22;58851;42.984;20.336;2024-03-02T02:41:50;205.10;537.60
55331;DHT22;58851;42.984;20.336;2024-03-02T02:44:16;205.20;435.20
55331;DHT22;58851;42.984;20.336;2024-03-02T02:46:42;205.20;358.40
55331;DHT22;58851;42.984;20.336;2024-03-02T02:49:08;205.20;358.40
55331;DHT22;58851;42.984;20.336;2024-03-02T02:51:33;205.10;512.00
55331;DHT22;58851;42.984;20.336;2024-03-02T02:53:59;205.10;435.20
55331;DHT22;58851;42.984;20.336;2024-03-02T02:56:25;205.00;435.20
55331;DHT22;58851;42.984;20.336;2024-03-02T02:58:51;205.00;6502.40
55331;DHT22;58851;42.984;20.336;2024-03-02T03:01:18;205.00;435.20
55331;DHT22;58851;42.984;20.336;2024-03-02T03:03:44;204.80;307.20
55331;DHT22;58851;42.984;20.336;2024-03-02T03:06:11;204.80;128.00
55331;DHT22;58851;42.984;20.336;2024-03-02T03:08:37;204.80;332.80
55331;DHT22;58851;42.984;20.336;2024-03-02T03:11:03;204.90;409.60
55331;DHT22;58851;42.984;20.336;2024-03-02T03:13:30;204.90;409.60
55331;DHT22;58851;42.984;20.336;2024-03-02T03:15:56;204.90;409.60
55331;DHT22;58851;42.984;20.336;2024-03-02T03:18:22;204.90;307.20
55331;DHT22;58851;42.984;20.336;2024-03-02T03:20:48;204.90;358.40
55331;DHT22;58851;42.984;20.336;2024-03-02T03:23:14;204.90;332.80
55331;DHT22;58851;42.984;20.336;2024-03-02T03:25:42;204.90;384.00
55331;DHT22;58851;42.984;20.336;2024-03-02T03:28:08;204.80;204.80
55331;DHT22;58851;42.984;20.336;2024-03-02T03:30:37;204.80;6502.40
55331;DHT22;58851;42.984;20.336;2024-03-02T03:33:04;204.80;6502.40
55331;DHT22;58851;42.984;20.336;2024-03-02T03:35:32;180.00;6502.40
55331;DHT22;58851;42.984;20.336;2024-03-02T03:37:57;180.10;6502.40
55331;DHT22;58851;42.984;20.336;2024-03-02T03:40:24;180.00;6502.40
55331;DHT22;58851;42.984;20.336;2024-03-02T03:42:49;180.00;6502.40
55331;DHT22;58851;42.984;20.336;2024-03-02T03:45:16;180.00;6502.40
55331;DHT22;58851;42.984;20.336;2024-03-02T03:47:42;180.00;6502.40
55331;DHT22;58851;42.984;20.336;2024-03-02T03:50:08;179.90;6502.40
55331;DHT22;58851;42.984;20.336;2024-03-02T03:52:34;179.90;6502.40
55331;DHT22;58851;42.984;20.336;2024-03-02T03:55:00;179.80;6502.40
55331;DHT22;58851;42.984;20.336;2024-03-02T03:57:26;179.70;6502.40
55331;DHT22;58851;42.984;20.336;2024-03-02T03:59:52;179.50;6502.40
55331;DHT22;58851;42.984;20.336;2024-03-02T04:02:18;179.40;6502.40
55331;DHT22;58851;42.984;20.336;2024-03-02T04:04:44;179.30;6502.40
55331;DHT22;58851;42.984;20.336;2024-03-02T04:07:10;179.40;6502.40
55331;DHT22;58851;42.984;20.336;2024-03-02T04:09:36;179.30;6502.40
55331;DHT22;58851;42.984;20.336;2024-03-02T04:12:01;179.30;6502.40
55331;DHT22;58851;42.984;20.336;2024-03-02T04:14:27;179.30;6502.40
55331;DHT22;58851;42.984;20.336;2024-03-02T04:16:53;179.20;6502.40
55331;DHT22;58851;42.984;20.336;2024-03-02T04:19:19;154.50;6502.40
55331;DHT22;58851;42.984;20.336;2024-03-02T04:21:44;154.50;6502.40
55331;DHT22;58851;42.984;20.336;2024-03-02T04:24:10;154.50;6502.40
55331;DHT22;58851;42.984;20.336;2024-03-02T04:26:36;154.50;6502.40
55331;DHT22;58851;42.984;20.336;2024-03-02T04:29:02;154.50;6502.40
55331;DHT22;58851;42.984;20.336;2024-03-02T04:31:28;154.50;6502.40
55331;DHT22;58851;42.984;20.336;2024-03-02T04:33:54;154.40;6502.40
55331;DHT22;58851;42.984;20.336;2024-03-02T04:36:20;154.40;6502.40
55331;DHT22;58851;42.984;20.336;2024-03-02T04:38:46;154.40;6502.40
55331;DHT22;58851;42.984;20.336;2024-03-02T04:41:12;154.30;6502.40
55331;DHT22;58851;42.984;20.336;2024-03-02T04:43:38;154.10;6502.40
55331;DHT22;58851;42.984;20.336;2024-03-02T04:46:05;154.00;6502.40
55331;DHT22;58851;42.984;20.336;2024-03-02T04:48:32;154.10;6502.40
55331;DHT22;58851;42.984;20.336;2024-03-02T04:50:58;154.10;6502.40
55331;DHT22;58851;42.984;20.336;2024-03-02T04:53:24;154.10;6502.40
55331;DHT22;58851;42.984;20.336;2024-03-02T04:55:49;154.20;6502.40
55331;DHT22;58851;42.984;20.336;2024-03-02T04:58:38;154.20;6502.40
55331;DHT22;58851;42.984;20.336;2024-03-02T05:01:03;154.30;6502.40
55331;DHT22;58851;42.984;20.336;2024-03-02T05:03:29;154.40;6502.40
55331;DHT22;58851;42.984;20.336;2024-03-02T05:05:55;154.50;6502.40
55331;DHT22;58851;42.984;20.336;2024-03-02T05:08:21;154.50;6502.40
55331;DHT22;58851;42.984;20.336;2024-03-02T05:10:47;154.50;6502.40
55331;DHT22;58851;42.984;20.336;2024-03-02T05:13:13;179.20;6502.40
55331;DHT22;58851;42.984;20.336;2024-03-02T05:15:39;179.20;6502.40
55331;DHT22;58851;42.984;20.336;2024-03-02T05:18:04;179.30;6502.40
55331;DHT22;58851;42.984;20.336;2024-03-02T05:20:30;179.30;6502.40
55331;DHT22;58851;42.984;20.336;2024-03-02T05:22:56;179.30;6502.40
55331;DHT22;58851;42.984;20.336;2024-03-02T05:25:22;179.30;6502.40
55331;DHT22;58851;42.984;20.336;2024-03-02T05:27:48;179.30;6502.40
55331;DHT22;58851;42.984;20.336;2024-03-02T05:30:14;179.40;6502.40
55331;DHT22;58851;42.984;20.336;2024-03-02T05:32:40;179.40;6502.40
55331;DHT22;58851;42.984;20.336;2024-03-02T05:35:06;179.40;6502.40
55331;DHT22;58851;42.984;20.336;2024-03-02T05:37:32;179.40;6502.40
55331;DHT22;58851;42.984;20.336;2024-03-02T05:39:58;179.50;6502.40
55331;DHT22;58851;42.984;20.336;2024-03-02T05:42:25;179.60;6502.40
55331;DHT22;58851;42.984;20.336;2024-03-02T05:44:50;179.60;6502.40
55331;DHT22;58851;42.984;20.336;2024-03-02T05:47:16;179.70;6502.40
55331;DHT22;58851;42.984;20.336;2024-03-02T05:49:42;179.70;6502.40
55331;DHT22;58851;42.984;20.336;2024-03-02T05:52:08;179.80;6502.40
55331;DHT22;58851;42.984;20.336;2024-03-02T05:54:34;179.80;6502.40
55331;DHT22;58851;42.984;20.336;2024-03-02T05:57:00;179.90;6502.40
55331;DHT22;58851;42.984;20.336;2024-03-02T05:59:42;179.90;6502.40
55331;DHT22;58851;42.984;20.336;2024-03-02T06:02:09;179.90;6502.40
55331;DHT22;58851;42.984;20.336;2024-03-02T06:04:34;180.00;6502.40
55331;DHT22;58851;42.984;20.336;2024-03-02T06:07:00;179.90;6502.40
55331;DHT22;58851;42.984;20.336;2024-03-02T06:09:26;179.90;6502.40
55331;DHT22;58851;42.984;20.336;2024-03-02T06:11:52;179.90;6502.40
55331;DHT22;58851;42.984;20.336;2024-03-02T06:14:17;179.90;6502.40
55331;DHT22;58851;42.984;20.336;2024-03-02T06:16:43;179.90;6502.40
55331;DHT22;58851;42.984;20.336;2024-03-02T06:19:09;180.00;6502.40
55331;DHT22;58851;42.984;20.336;2024-03-02T06:21:35;180.10;6502.40
55331;DHT22;58851;42.984;20.336;2024-03-02T06:24:00;204.80;6502.40
55331;DHT22;58851;42.984;20.336;2024-03-02T06:26:26;204.90;128.00
55331;DHT22;58851;42.984;20.336;2024-03-02T06:28:52;204.90;128.00
55331;DHT22;58851;42.984;20.336;2024-03-02T06:31:18;204.90;6502.40
55331;DHT22;58851;42.984;20.336;2024-03-02T06:33:44;204.90;128.00
55331;DHT22;58851;42.984;20.336;2024-03-02T06:36:11;204.90;230.40
55331;DHT22;58851;42.984;20.336;2024-03-02T06:38:37;205.10;128.00
55331;DHT22;58851;42.984;20.336;2024-03-02T06:41:06;205.20;128.00
55331;DHT22;58851;42.984;20.336;2024-03-02T06:43:31;205.30;384.00
55331;DHT22;58851;42.984;20.336;2024-03-02T06:45:57;205.30;179.20
55331;DHT22;58851;42.984;20.336;2024-03-02T06:48:23;205.40;281.60
55331;DHT22;58851;42.984;20.336;2024-03-02T06:50:50;205.60;435.20
55331;DHT22;58851;42.984;20.336;2024-03-02T06:53:17;205.70;204.80
55331;DHT22;58851;42.984;20.336;2024-03-02T06:55:46;230.40;128.00
55331;DHT22;58851;42.984;20.336;2024-03-02T06:58:32;230.40;179.20
55331;DHT22;58851;42.984;20.336;2024-03-02T07:00:58;230.50;128.00
55331;DHT22;58851;42.984;20.336;2024-03-02T07:03:25;230.40;128.00
55331;DHT22;58851;42.984;20.336;2024-03-02T07:05:51;230.40;128.00
55331;DHT22;58851;42.984;20.336;2024-03-02T07:08:17;230.40;256.00
55331;DHT22;58851;42.984;20.336;2024-03-02T07:10:43;230.40;204.80
55331;DHT22;58851;42.984;20.336;2024-03-02T07:13:08;230.40;409.60
55331;DHT22;58851;42.984;20.336;2024-03-02T07:15:34;205.70;307.20
55331;DHT22;58851;42.984;20.336;2024-03-02T07:18:32;230.50;409.60
55331;DHT22;58851;42.984;20.336;2024-03-02T07:20:59;230.60;332.80
55331;DHT22;58851;42.984;20.336;2024-03-02T07:23:26;230.60;128.00
55331;DHT22;58851;42.984;20.336;2024-03-02T07:25:56;230.60;153.60
55331;DHT22;58851;42.984;20.336;2024-03-02T07:28:25;230.60;230.40
55331;DHT22;58851;42.984;20.336;2024-03-02T07:31:01;230.60;204.80
55331;DHT22;58851;42.984;20.336;2024-03-02T07:33:27;230.70;6528.00
55331;DHT22;58851;42.984;20.336;2024-03-02T07:35:54;230.80;128.00
55331;DHT22;58851;42.984;20.336;2024-03-02T07:38:21;230.80;128.00
55331;DHT22;58851;42.984;20.336;2024-03-02T07:40:48;230.90;128.00
55331;DHT22;58851;42.984;20.336;2024-03-02T07:43:17;231.00;128.00
55331;DHT22;58851;42.984;20.336;2024-03-02T07:45:43;231.20;6502.40
55331;DHT22;58851;42.984;20.336;2024-03-02T07:48:09;231.20;6528.00
55331;DHT22;58851;42.984;20.336;2024-03-02T07:50:35;256.10;6502.40
55331;DHT22;58851;42.984;20.336;2024-03-02T07:53:01;256.30;6502.40
55331;DHT22;58851;42.984;20.336;2024-03-02T07:55:27;256.50;6502.40
55331;DHT22;58851;42.984;20.336;2024-03-02T07:57:53;256.80;6502.40
55331;DHT22;58851;42.984;20.336;2024-03-02T08:00:19;281.60;6528.00
55331;DHT22;58851;42.984;20.336;2024-03-02T08:02:44;281.80;6528.00
55331;DHT22;58851;42.984;20.336;2024-03-02T08:05:10;281.60;6528.00
55331;DHT22;58851;42.984;20.336;2024-03-02T08:07:36;256.80;6502.40
55331;DHT22;58851;42.984;20.336;2024-03-02T08:10:02;281.60;6528.00
55331;DHT22;58851;42.984;20.336;2024-03-02T08:12:28;281.80;6528.00
55331;DHT22;58851;42.984;20.336;2024-03-02T08:14:54;281.80;6528.00
55331;DHT22;58851;42.984;20.336;2024-03-02T08:17:20;281.60;6528.00
55331;DHT22;58851;42.984;20.336;2024-03-02T08:19:45;281.60;6528.00
55331;DHT22;58851;42.984;20.336;2024-03-02T08:22:16;256.80;6502.40
55331;DHT22;58851;42.984;20.336;2024-03-02T08:24:42;256.80;6502.40
55331;DHT22;58851;42.984;20.336;2024-03-02T08:27:08;256.40;6502.40
55331;DHT22;58851;42.984;20.336;2024-03-02T08:29:35;256.30;6502.40
55331;DHT22;58851;42.984;20.336;2024-03-02T08:32:01;256.40;6502.40
55331;DHT22;58851;42.984;20.336;2024-03-02T08:34:27;256.30;6502.40
55331;DHT22;58851;42.984;20.336;2024-03-02T08:36:52;256.30;6502.40
55331;DHT22;58851;42.984;20.336;2024-03-02T08:39:18;256.50;6502.40
55331;DHT22;58851;42.984;20.336;2024-03-02T08:41:46;256.70;6502.40
55331;DHT22;58851;42.984;20.336;2024-03-02T08:44:13;256.80;6502.40
55331;DHT22;58851;42.984;20.336;2024-03-02T08:46:39;281.60;6528.00
55331;DHT22;58851;42.984;20.336;2024-03-02T08:49:06;281.90;6528.00
55331;DHT22;58851;42.984;20.336;2024-03-02T08:51:32;281.90;6528.00
55331;DHT22;58851;42.984;20.336;2024-03-02T08:53:59;281.90;6528.00
55331;DHT22;58851;42.984;20.336;2024-03-02T08:56:25;281.70;6528.00
55331;DHT22;58851;42.984;20.336;2024-03-02T08:58:51;281.90;6528.00
55331;DHT22;58851;42.984;20.336;2024-03-02T09:01:18;281.70;6528.00
55331;DHT22;58851;42.984;20.336;2024-03-02T09:03:45;281.80;6528.00
55331;DHT22;58851;42.984;20.336;2024-03-02T09:06:11;282.00;6528.00
55331;DHT22;58851;42.984;20.336;2024-03-02T09:08:38;282.30;6528.00
55331;DHT22;58851;42.984;20.336;2024-03-02T09:11:05;307.20;128.00
55331;DHT22;58851;42.984;20.336;2024-03-02T09:13:35;307.40;128.00
55331;DHT22;58851;42.984;20.336;2024-03-02T09:16:01;307.60;128.00
55331;DHT22;58851;42.984;20.336;2024-03-02T09:18:28;307.70;128.00
55331;DHT22;58851;42.984;20.336;2024-03-02T09:20:54;307.90;128.00
55331;DHT22;58851;42.984;20.336;2024-03-02T09:23:21;307.90;128.00
55331;DHT22;58851;42.984;20.336;2024-03-02T09:25:47;332.80;230.40
55331;DHT22;58851;42.984;20.336;2024-03-02T09:28:12;332.90;588.80
55331;DHT22;58851;42.984;20.336;2024-03-02T09:30:38;333.10;128.00
55331;DHT22;58851;42.984;20.336;2024-03-02T09:33:04;333.30;128.00
55331;DHT22;58851;42.984;20.336;2024-03-02T09:35:30;333.30;128.00
55331;DHT22;58851;42.984;20.336;2024-03-02T09:37:56;333.50;128.00
55331;DHT22;58851;42.984;20.336;2024-03-02T09:40:22;333.70;128.00
55331;DHT22;58851;42.984;20.336;2024-03-02T09:42:48;358.40;128.00
55331;DHT22;58851;42.984;20.336;2024-03-02T09:45:23;358.60;128.00
55331;DHT22;58851;42.984;20.336;2024-03-02T09:47:49;358.80;128.00
55331;DHT22;58851;42.984;20.336;2024-03-02T09:50:16;359.20;128.00
55331;DHT22;58851;42.984;20.336;2024-03-02T09:52:48;384.00;128.00
55331;DHT22;58851;42.984;20.336;2024-03-02T09:55:15;359.30;128.00
55331;DHT22;58851;42.984;20.336;2024-03-02T09:57:42;384.20;128.00
55331;DHT22;58851;42.984;20.336;2024-03-02T10:00:09;384.50;128.00
55331;DHT22;58851;42.984;20.336;2024-03-02T10:02:42;384.70;128.00
55331;DHT22;58851;42.984;20.336;2024-03-02T10:05:09;409.60;128.00
55331;DHT22;58851;42.984;20.336;2024-03-02T10:07:35;409.70;128.00
55331;DHT22;58851;42.984;20.336;2024-03-02T10:10:13;409.80;128.00
55331;DHT22;58851;42.984;20.336;2024-03-02T10:12:39;410.00;128.00
55331;DHT22;58851;42.984;20.336;2024-03-02T10:15:06;410.00;128.00
55331;DHT22;58851;42.984;20.336;2024-03-02T10:17:33;410.20;128.00
55331;DHT22;58851;42.984;20.336;2024-03-02T10:19:59;410.00;128.00
55331;DHT22;58851;42.984;20.336;2024-03-02T10:22:25;409.90;128.00
55331;DHT22;58851;42.984;20.336;2024-03-02T10:24:52;409.70;128.00
55331;DHT22;58851;42.984;20.336;2024-03-02T10:27:27;384.50;128.00
55331;DHT22;58851;42.984;20.336;2024-03-02T10:29:54;384.50;128.00
55331;DHT22;58851;42.984;20.336;2024-03-02T10:32:22;384.80;128.00
55331;DHT22;58851;42.984;20.336;2024-03-02T10:34:48;384.70;128.00
55331;DHT22;58851;42.984;20.336;2024-03-02T10:37:15;384.80;128.00
55331;DHT22;58851;42.984;20.336;2024-03-02T10:39:43;384.90;128.00
55331;DHT22;58851;42.984;20.336;2024-03-02T10:42:09;384.90;128.00
55331;DHT22;58851;42.984;20.336;2024-03-02T10:44:35;384.70;128.00
55331;DHT22;58851;42.984;20.336;2024-03-02T10:47:02;384.70;128.00
55331;DHT22;58851;42.984;20.336;2024-03-02T10:49:32;384.70;128.00
55331;DHT22;58851;42.984;20.336;2024-03-02T10:51:59;384.70;128.00
55331;DHT22;58851;42.984;20.336;2024-03-02T10:54:25;384.70;128.00
55331;DHT22;58851;42.984;20.336;2024-03-02T10:56:53;384.60;128.00
55331;DHT22;58851;42.984;20.336;2024-03-02T10:59:35;384.50;128.00
55331;DHT22;58851;42.984;20.336;2024-03-02T11:02:03;384.40;128.00
55331;DHT22;58851;42.984;20.336;2024-03-02T11:04:30;384.30;128.00
55331;DHT22;58851;42.984;20.336;2024-03-02T11:07:09;384.40;128.00
55331;DHT22;58851;42.984;20.336;2024-03-02T11:09:59;384.60;128.00
55331;DHT22;58851;42.984;20.336;2024-03-02T11:15:17;384.70;128.00
55331;DHT22;58851;42.984;20.336;2024-03-02T11:17:47;384.60;128.00
55331;DHT22;58851;42.984;20.336;2024-03-02T11:20:14;384.70;128.00
55331;DHT22;58851;42.984;20.336;2024-03-02T11:22:40;384.70;128.00
55331;DHT22;58851;42.984;20.336;2024-03-02T11:25:26;384.70;128.00
55331;DHT22;58851;42.984;20.336;2024-03-02T11:32:59;384.70;128.00
55331;DHT22;58851;42.984;20.336;2024-03-02T11:35:28;384.60;128.00
55331;DHT22;58851;42.984;20.336;2024-03-02T11:37:54;384.90;128.00
55331;DHT22;58851;42.984;20.336;2024-03-02T11:40:24;384.90;128.00
55331;DHT22;58851;42.984;20.336;2024-03-02T11:42:51;384.70;128.00
55331;DHT22;58851;42.984;20.336;2024-03-02T11:45:23;384.70;128.00
55331;DHT22;58851;42.984;20.336;2024-03-02T11:47:51;384.60;128.00
55331;DHT22;58851;42.984;20.336;2024-03-02T11:50:40;384.50;128.00
55331;DHT22;58851;42.984;20.336;2024-03-02T11:53:08;384.60;128.00
55331;DHT22;58851;42.984;20.336;2024-03-02T11:55:38;384.70;128.00
55331;DHT22;58851;42.984;20.336;2024-03-02T11:58:05;384.70;128.00
55331;DHT22;58851;42.984;20.336;2024-03-02T12:00:31;384.80;128.00
55331;DHT22;58851;42.984;20.336;2024-03-02T12:03:13;384.90;128.00
55331;DHT22;58851;42.984;20.336;2024-03-02T12:05:39;409.60;128.00
55331;DHT22;58851;42.984;20.336;2024-03-02T12:08:06;409.80;128.00
55331;DHT22;58851;42.984;20.336;2024-03-02T12:10:33;409.90;128.00
55331;DHT22;58851;42.984;20.336;2024-03-02T12:13:00;409.80;128.00
55331;DHT22;58851;42.984;20.336;2024-03-02T12:15:27;409.70;128.00
55331;DHT22;58851;42.984;20.336;2024-03-02T12:17:57;384.90;128.00
55331;DHT22;58851;42.984;20.336;2024-03-02T12:20:25;384.90;128.00
55331;DHT22;58851;42.984;20.336;2024-03-02T12:22:53;409.60;128.00
55331;DHT22;58851;42.984;20.336;2024-03-02T12:25:20;409.70;128.00
55331;DHT22;58851;42.984;20.336;2024-03-02T12:27:51;409.80;128.00
55331;DHT22;58851;42.984;20.336;2024-03-02T12:30:17;410.00;128.00
55331;DHT22;58851;42.984;20.336;2024-03-02T12:32:44;410.00;128.00
55331;DHT22;58851;42.984;20.336;2024-03-02T12:35:11;410.10;128.00
55331;DHT22;58851;42.984;20.336;2024-03-02T12:37:50;410.10;128.00
55331;DHT22;58851;42.984;20.336;2024-03-02T12:40:17;410.10;128.00
55331;DHT22;58851;42.984;20.336;2024-03-02T12:42:44;410.20;128.00
55331;DHT22;58851;42.984;20.336;2024-03-02T12:45:11;410.10;128.00
55331;DHT22;58851;42.984;20.336;2024-03-02T12:47:39;410.20;128.00
55331;DHT22;58851;42.984;20.336;2024-03-02T12:50:05;410.20;128.00
55331;DHT22;58851;42.984;20.336;2024-03-02T12:52:32;410.30;128.00
55331;DHT22;58851;42.984;20.336;2024-03-02T12:55:00;410.30;128.00
55331;DHT22;58851;42.984;20.336;2024-03-02T12:57:27;410.40;128.00
55331;DHT22;58851;42.984;20.336;2024-03-02T13:00:02;410.30;128.00
55331;DHT22;58851;42.984;20.336;2024-03-02T13:02:35;410.40;128.00
55331;DHT22;58851;42.984;20.336;2024-03-02T13:05:01;435.20;128.00
55331;DHT22;58851;42.984;20.336;2024-03-02T13:07:28;435.20;128.00
55331;DHT22;58851;42.984;20.336;2024-03-02T13:09:55;435.90;128.00
55331;DHT22;58851;42.984;20.336;2024-03-02T13:12:27;461.10;128.00
55331;DHT22;58851;42.984;20.336;2024-03-02T13:14:54;461.20;128.00
55331;DHT22;58851;42.984;20.336;2024-03-02T13:17:20;461.30;128.00
55331;DHT22;58851;42.984;20.336;2024-03-02T13:19:57;461.10;128.00
55331;DHT22;58851;42.984;20.336;2024-03-02T13:22:23;461.50;128.00
55331;DHT22;58851;42.984;20.336;2024-03-02T13:24:50;461.40;128.00
55331;DHT22;58851;42.984;20.336;2024-03-02T13:27:16;461.50;128.00
55331;DHT22;58851;42.984;20.336;2024-03-02T13:29:47;461.70;128.00
55331;DHT22;58851;42.984;20.336;2024-03-02T13:32:14;461.30;128.00
55331;DHT22;58851;42.984;20.336;2024-03-02T13:34:40;461.20;128.00
55331;DHT22;58851;42.984;20.336;2024-03-02T13:37:07;460.80;128.00
55331;DHT22;58851;42.984;20.336;2024-03-02T13:39:33;435.90;128.00
55331;DHT22;58851;42.984;20.336;2024-03-02T13:42:06;436.00;128.00
55331;DHT22;58851;42.984;20.336;2024-03-02T13:44:34;435.90;128.00
55331;DHT22;58851;42.984;20.336;2024-03-02T13:47:03;435.20;128.00
55331;DHT22;58851;42.984;20.336;2024-03-02T13:49:30;435.30;128.00
55331;DHT22;58851;42.984;20.336;2024-03-02T13:52:00;410.30;128.00
55331;DHT22;58851;42.984;20.336;2024-03-02T13:54:29;409.90;128.00
55331;DHT22;58851;42.984;20.336;2024-03-02T13:56:56;409.80;128.00
55331;DHT22;58851;42.984;20.336;2024-03-02T13:59:25;409.60;128.00
55331;DHT22;58851;42.984;20.336;2024-03-02T14:01:51;409.70;128.00
55331;DHT22;58851;42.984;20.336;2024-03-02T14:04:17;409.60;128.00
55331;DHT22;58851;42.984;20.336;2024-03-02T14:06:43;409.60;128.00
55331;DHT22;58851;42.984;20.336;2024-03-02T14:09:09;409.80;128.00
55331;DHT22;58851;42.984;20.336;2024-03-02T14:11:35;409.90;128.00
55331;DHT22;58851;42.984;20.336;2024-03-02T14:14:01;410.10;128.00
55331;DHT22;58851;42.984;20.336;2024-03-02T14:16:28;410.20;128.00
55331;DHT22;58851;42.984;20.336;2024-03-02T14:18:54;410.40;128.00
55331;DHT22;58851;42.984;20.336;2024-03-02T14:21:19;436.10;128.00
55331;DHT22;58851;42.984;20.336;2024-03-02T14:23:45;486.40;128.00
55331;DHT22;58851;42.984;20.336;2024-03-02T14:26:11;487.30;128.00
55331;DHT22;58851;42.984;20.336;2024-03-02T14:28:37;512.70;537.60
55331;DHT22;58851;42.984;20.336;2024-03-02T14:31:03;538.10;256.00
55331;DHT22;58851;42.984;20.336;2024-03-02T14:33:29;538.50;128.00
55331;DHT22;58851;42.984;20.336;2024-03-02T14:35:56;563.60;128.00
55331;DHT22;58851;42.984;20.336;2024-03-02T14:38:21;563.70;128.00
55331;DHT22;58851;42.984;20.336;2024-03-02T14:40:47;563.90;128.00
55331;DHT22;58851;42.984;20.336;2024-03-02T14:43:13;588.90;128.00
55331;DHT22;58851;42.984;20.336;2024-03-02T14:45:39;589.00;128.00
55331;DHT22;58851;42.984;20.336;2024-03-02T14:48:05;563.80;128.00
55331;DHT22;58851;42.984;20.336;2024-03-02T14:50:31;563.30;128.00
55331;DHT22;58851;42.984;20.336;2024-03-02T14:52:57;538.20;128.00